sensor_id;sensor_type;location;lat;lon;timestamp;P1;durP1;ratioP1;P2;durP2;ratioP2
8399;SDS011;4237;47.030;15.396;2023-04-01T00:00:50;9.63;;;3.40;;
8399;SDS011;4237;47.030;15.396;2023-04-01T00:03:20;6.67;;;3.13;;
8399;SDS011;4237;47.030;15.396;2023-04-01T00:05:49;3.27;;;2.47;;
8399;SDS011;4237;47.030;15.396;2023-04-01T00:08:17;3.07;;;2.53;;
8399;SDS011;4237;47.030;15.396;2023-04-01T00:10:45;2.90;;;2.60;;
8399;SDS011;4237;47.030;15.396;2023-04-01T00:13:13;2.97;;;2.67;;
8399;SDS011;4237;47.030;15.396;2023-04-01T00:15:42;3.87;;;3.40;;
8399;SDS011;4237;47.030;15.396;2023-04-01T00:18:11;4.57;;;3.20;;
8399;SDS011;4237;47.030;15.396;2023-04-01T00:20:44;3.73;;;2.60;;
8399;SDS011;4237;47.030;15.396;2023-04-01T00:23:13;5.57;;;3.00;;
8399;SDS011;4237;47.030;15.396;2023-04-01T00:25:42;4.27;;;2.83;;
8399;SDS011;4237;47.030;15.396;2023-04-01T00:28:12;4.03;;;3.63;;
8399;SDS011;4237;47.030;15.396;2023-04-01T00:30:40;6.70;;;3.90;;
8399;SDS011;4237;47.030;15.396;2023-04-01T00:33:08;4.43;;;3.53;;
8399;SDS011;4237;47.030;15.396;2023-04-01T00:35:38;3.90;;;3.40;;
8399;SDS011;4237;47.030;15.396;2023-04-01T00:38:06;4.30;;;3.90;;
8399;SDS011;4237;47.030;15.396;2023-04-01T00:40:36;6.53;;;4.30;;
8399;SDS011;4237;47.030;15.396;2023-04-01T00:43:09;7.30;;;4.23;;
8399;SDS011;4237;47.030;15.396;2023-04-01T00:45:35;4.23;;;3.80;;
8399;SDS011;4237;47.030;15.396;2023-04-01T00:48:08;3.63;;;3.30;;
8399;SDS011;4237;47.030;15.396;2023-04-01T00:50:36;3.40;;;2.70;;
8399;SDS011;4237;47.030;15.396;2023-04-01T00:53:06;2.33;;;2.13;;
8399;SDS011;4237;47.030;15.396;2023-04-01T00:55:35;2.53;;;2.33;;
8399;SDS011;4237;47.030;15.396;2023-04-01T00:58:05;3.53;;;2.40;;
8399;SDS011;4237;47.030;15.396;2023-04-01T01:00:34;4.17;;;2.30;;
8399;SDS011;4237;47.030;15.396;2023-04-01T01:03:04;3.27;;;2.57;;
8399;SDS011;4237;47.030;15.396;2023-04-01T01:05:38;2.67;;;2.40;;
8399;SDS011;4237;47.030;15.396;2023-04-01T01:08:05;3.00;;;2.40;;
8399;SDS011;4237;47.030;15.396;2023-04-01T01:10:32;4.10;;;2.80;;
8399;SDS011;4237;47.030;15.396;2023-04-01T01:15:40;5.07;;;2.90;;
8399;SDS011;4237;47.030;15.396;2023-04-01T01:18:21;3.40;;;3.10;;
8399;SDS011;4237;47.030;15.396;2023-04-01T01:21:04;4.17;;;3.40;;
8399;SDS011;4237;47.030;15.396;2023-04-01T01:31:23;4.40;;;3.77;;
8399;SDS011;4237;47.030;15.396;2023-04-01T01:34:03;8.80;;;5.00;;
8399;SDS011;4237;47.030;15.396;2023-04-01T01:36:31;5.60;;;4.60;;
8399;SDS011;4237;47.030;15.396;2023-04-01T01:39:03;5.17;;;4.17;;
8399;SDS011;4237;47.030;15.396;2023-04-01T01:41:32;5.97;;;3.73;;
8399;SDS011;4237;47.030;15.396;2023-04-01T01:44:00;4.93;;;3.63;;
8399;SDS011;4237;47.030;15.396;2023-04-01T01:46:30;4.83;;;4.00;;
8399;SDS011;4237;47.030;15.396;2023-04-01T01:48:59;6.60;;;4.03;;
8399;SDS011;4237;47.030;15.396;2023-04-01T01:51:28;5.23;;;4.00;;
8399;SDS011;4237;47.030;15.396;2023-04-01T01:53:56;5.37;;;4.43;;
8399;SDS011;4237;47.030;15.396;2023-04-01T01:56:25;3.63;;;3.30;;
8399;SDS011;4237;47.030;15.396;2023-04-01T01:58:56;5.33;;;4.80;;
8399;SDS011;4237;47.030;15.396;2023-04-01T02:01:24;4.80;;;4.30;;
8399;SDS011;4237;47.030;15.396;2023-04-01T02:03:53;4.77;;;3.93;;
8399;SDS011;4237;47.030;15.396;2023-04-01T02:06:24;5.17;;;3.93;;
8399;SDS011;4237;47.030;15.396;2023-04-01T02:08:54;6.17;;;4.23;;
8399;SDS011;4237;47.030;15.396;2023-04-01T02:11:24;4.77;;;4.13;;
8399;SDS011;4237;47.030;15.396;2023-04-01T02:17:07;5.70;;;4.23;;
8399;SDS011;4237;47.030;15.396;2023-04-01T02:18:56;5.57;;;4.00;;
8399;SDS011;4237;47.030;15.396;2023-04-01T02:21:27;4.80;;;4.13;;
8399;SDS011;4237;47.030;15.396;2023-04-01T02:23:56;7.67;;;3.63;;
8399;SDS011;4237;47.030;15.396;2023-04-01T02:26:25;4.10;;;2.97;;
8399;SDS011;4237;47.030;15.396;2023-04-01T02:28:54;4.13;;;3.33;;
8399;SDS011;4237;47.030;15.396;2023-04-01T02:31:23;5.77;;;3.40;;
8399;SDS011;4237;47.030;15.396;2023-04-01T02:33:52;4.67;;;3.73;;
8399;SDS011;4237;47.030;15.396;2023-04-01T02:36:21;4.93;;;4.00;;
8399;SDS011;4237;47.030;15.396;2023-04-01T02:38:49;5.60;;;3.90;;
8399;SDS011;4237;47.030;15.396;2023-04-01T02:41:19;4.50;;;3.50;;
8399;SDS011;4237;47.030;15.396;2023-04-01T02:43:48;4.50;;;3.53;;
8399;SDS011;4237;47.030;15.396;2023-04-01T02:46:16;6.60;;;3.67;;
8399;SDS011;4237;47.030;15.396;2023-04-01T02:48:45;5.87;;;4.93;;
8399;SDS011;4237;47.030;15.396;2023-04-01T02:51:13;7.10;;;5.50;;
8399;SDS011;4237;47.030;15.396;2023-04-01T02:53:41;4.80;;;3.77;;
8399;SDS011;4237;47.030;15.396;2023-04-01T02:56:09;5.57;;;4.17;;
8399;SDS011;4237;47.030;15.396;2023-04-01T02:58:37;5.13;;;4.33;;
8399;SDS011;4237;47.030;15.396;2023-04-01T03:01:06;4.87;;;4.13;;
8399;SDS011;4237;47.030;15.396;2023-04-01T03:03:35;5.67;;;3.87;;
8399;SDS011;4237;47.030;15.396;2023-04-01T03:06:10;5.03;;;4.00;;
8399;SDS011;4237;47.030;15.396;2023-04-01T03:08:39;5.27;;;3.73;;
8399;SDS011;4237;47.030;15.396;2023-04-01T03:11:08;5.37;;;4.13;;
8399;SDS011;4237;47.030;15.396;2023-04-01T03:13:37;6.37;;;3.77;;
8399;SDS011;4237;47.030;15.396;2023-04-01T03:16:05;5.20;;;3.93;;
8399;SDS011;4237;47.030;15.396;2023-04-01T03:18:33;4.30;;;3.50;;
8399;SDS011;4237;47.030;15.396;2023-04-01T03:21:14;3.97;;;3.40;;
8399;SDS011;4237;47.030;15.396;2023-04-01T03:23:43;4.13;;;3.50;;
8399;SDS011;4237;47.030;15.396;2023-04-01T03:26:11;6.87;;;3.53;;
8399;SDS011;4237;47.030;15.396;2023-04-01T03:28:40;4.37;;;3.40;;
8399;SDS011;4237;47.030;15.396;2023-04-01T03:31:11;4.83;;;3.67;;
8399;SDS011;4237;47.030;15.396;2023-04-01T03:33:38;6.93;;;3.80;;
8399;SDS011;4237;47.030;15.396;2023-04-01T03:36:07;4.63;;;3.50;;
8399;SDS011;4237;47.030;15.396;2023-04-01T03:38:35;4.20;;;3.40;;
8399;SDS011;4237;47.030;15.396;2023-04-01T03:41:04;3.73;;;3.33;;
8399;SDS011;4237;47.030;15.396;2023-04-01T03:43:32;5.43;;;3.00;;
8399;SDS011;4237;47.030;15.396;2023-04-01T03:46:00;4.07;;;3.27;;
8399;SDS011;4237;47.030;15.396;2023-04-01T03:48:29;5.00;;;3.50;;
8399;SDS011;4237;47.030;15.396;2023-04-01T03:50:57;4.40;;;3.53;;
8399;SDS011;4237;47.030;15.396;2023-04-01T03:53:25;4.70;;;3.00;;
8399;SDS011;4237;47.030;15.396;2023-04-01T03:55:54;5.30;;;3.20;;
8399;SDS011;4237;47.030;15.396;2023-04-01T03:58:22;4.20;;;3.50;;
8399;SDS011;4237;47.030;15.396;2023-04-01T04:00:51;7.63;;;4.33;;
8399;SDS011;4237;47.030;15.396;2023-04-01T04:03:19;4.67;;;3.73;;
8399;SDS011;4237;47.030;15.396;2023-04-01T04:05:47;6.67;;;3.97;;
8399;SDS011;4237;47.030;15.396;2023-04-01T04:08:16;4.23;;;3.43;;
8399;SDS011;4237;47.030;15.396;2023-04-01T04:10:44;3.97;;;3.30;;
8399;SDS011;4237;47.030;15.396;2023-04-01T04:13:13;3.90;;;3.50;;
8399;SDS011;4237;47.030;15.396;2023-04-01T04:15:42;4.83;;;3.30;;
8399;SDS011;4237;47.030;15.396;2023-04-01T04:18:10;4.30;;;3.20;;
8399;SDS011;4237;47.030;15.396;2023-04-01T04:20:43;3.97;;;3.60;;
8399;SDS011;4237;47.030;15.396;2023-04-01T04:23:08;3.83;;;3.33;;
8399;SDS011;4237;47.030;15.396;2023-04-01T04:25:36;7.17;;;3.83;;
8399;SDS011;4237;47.030;15.396;2023-04-01T04:28:04;5.43;;;3.63;;
8399;SDS011;4237;47.030;15.396;2023-04-01T04:30:32;6.17;;;4.53;;
8399;SDS011;4237;47.030;15.396;2023-04-01T04:33:00;4.70;;;3.73;;
8399;SDS011;4237;47.030;15.396;2023-04-01T04:35:29;6.30;;;4.27;;
8399;SDS011;4237;47.030;15.396;2023-04-01T04:37:57;9.00;;;4.17;;
8399;SDS011;4237;47.030;15.396;2023-04-01T04:40:25;8.87;;;4.87;;
8399;SDS011;4237;47.030;15.396;2023-04-01T04:42:53;4.47;;;3.90;;
8399;SDS011;4237;47.030;15.396;2023-04-01T04:45:21;8.93;;;3.83;;
8399;SDS011;4237;47.030;15.396;2023-04-01T04:47:50;9.00;;;4.33;;
8399;SDS011;4237;47.030;15.396;2023-04-01T04:50:18;3.77;;;3.13;;
8399;SDS011;4237;47.030;15.396;2023-04-01T04:52:46;3.23;;;2.60;;
8399;SDS011;4237;47.030;15.396;2023-04-01T04:55:14;4.40;;;3.00;;
8399;SDS011;4237;47.030;15.396;2023-04-01T04:57:43;5.70;;;3.57;;
8399;SDS011;4237;47.030;15.396;2023-04-01T05:00:12;6.47;;;3.70;;
8399;SDS011;4237;47.030;15.396;2023-04-01T05:02:40;6.43;;;4.23;;
8399;SDS011;4237;47.030;15.396;2023-04-01T05:05:08;14.80;;;4.70;;
8399;SDS011;4237;47.030;15.396;2023-04-01T05:07:37;3.87;;;3.23;;
8399;SDS011;4237;47.030;15.396;2023-04-01T05:10:06;5.60;;;3.43;;
8399;SDS011;4237;47.030;15.396;2023-04-01T05:12:34;5.37;;;3.60;;
8399;SDS011;4237;47.030;15.396;2023-04-01T05:15:04;3.87;;;3.40;;
8399;SDS011;4237;47.030;15.396;2023-04-01T05:17:33;5.93;;;4.40;;
8399;SDS011;4237;47.030;15.396;2023-04-01T05:20:01;7.10;;;3.83;;
8399;SDS011;4237;47.030;15.396;2023-04-01T05:22:30;7.53;;;4.10;;
8399;SDS011;4237;47.030;15.396;2023-04-01T05:24:58;7.37;;;3.60;;
8399;SDS011;4237;47.030;15.396;2023-04-01T05:27:26;9.33;;;6.10;;
8399;SDS011;4237;47.030;15.396;2023-04-01T05:29:55;20.03;;;11.93;;
8399;SDS011;4237;47.030;15.396;2023-04-01T05:32:23;12.23;;;7.00;;
8399;SDS011;4237;47.030;15.396;2023-04-01T05:35:12;6.33;;;5.37;;
8399;SDS011;4237;47.030;15.396;2023-04-01T05:37:40;6.17;;;5.13;;
8399;SDS011;4237;47.030;15.396;2023-04-01T05:40:09;4.47;;;3.80;;
8399;SDS011;4237;47.030;15.396;2023-04-01T05:42:38;5.47;;;3.80;;
8399;SDS011;4237;47.030;15.396;2023-04-01T05:45:07;3.70;;;3.33;;
8399;SDS011;4237;47.030;15.396;2023-04-01T05:47:35;7.20;;;4.40;;
8399;SDS011;4237;47.030;15.396;2023-04-01T05:50:04;8.30;;;3.80;;
8399;SDS011;4237;47.030;15.396;2023-04-01T05:52:32;4.83;;;3.90;;
8399;SDS011;4237;47.030;15.396;2023-04-01T05:55:00;6.17;;;3.77;;
8399;SDS011;4237;47.030;15.396;2023-04-01T05:57:29;4.80;;;3.93;;
8399;SDS011;4237;47.030;15.396;2023-04-01T05:59:57;4.83;;;4.07;;
8399;SDS011;4237;47.030;15.396;2023-04-01T06:02:25;4.77;;;3.57;;
8399;SDS011;4237;47.030;15.396;2023-04-01T06:04:58;6.27;;;3.60;;
8399;SDS011;4237;47.030;15.396;2023-04-01T06:07:27;8.03;;;3.90;;
8399;SDS011;4237;47.030;15.396;2023-04-01T06:09:58;6.70;;;3.60;;
8399;SDS011;4237;47.030;15.396;2023-04-01T06:15:28;10.77;;;6.50;;
8399;SDS011;4237;47.030;15.396;2023-04-01T06:36:23;5.53;;;3.80;;
8399;SDS011;4237;47.030;15.396;2023-04-01T06:38:55;7.37;;;4.27;;
8399;SDS011;4237;47.030;15.396;2023-04-01T06:41:28;6.20;;;4.00;;
8399;SDS011;4237;47.030;15.396;2023-04-01T06:46:42;6.97;;;4.70;;
8399;SDS011;4237;47.030;15.396;2023-04-01T06:49:21;7.83;;;4.70;;
8399;SDS011;4237;47.030;15.396;2023-04-01T06:51:50;6.90;;;5.00;;
8399;SDS011;4237;47.030;15.396;2023-04-01T06:54:20;8.53;;;5.37;;
8399;SDS011;4237;47.030;15.396;2023-04-01T06:56:49;12.13;;;5.07;;
8399;SDS011;4237;47.030;15.396;2023-04-01T06:59:22;8.87;;;4.70;;
8399;SDS011;4237;47.030;15.396;2023-04-01T07:02:03;12.37;;;5.70;;
8399;SDS011;4237;47.030;15.396;2023-04-01T07:04:32;8.27;;;5.20;;
8399;SDS011;4237;47.030;15.396;2023-04-01T07:07:05;12.03;;;6.23;;
8399;SDS011;4237;47.030;15.396;2023-04-01T07:09:40;16.20;;;6.07;;
8399;SDS011;4237;47.030;15.396;2023-04-01T07:12:11;14.03;;;5.80;;
8399;SDS011;4237;47.030;15.396;2023-04-01T07:14:39;7.63;;;5.30;;
8399;SDS011;4237;47.030;15.396;2023-04-01T07:17:12;8.80;;;5.23;;
8399;SDS011;4237;47.030;15.396;2023-04-01T07:22:23;10.17;;;5.90;;
8399;SDS011;4237;47.030;15.396;2023-04-01T07:24:50;8.03;;;4.80;;
8399;SDS011;4237;47.030;15.396;2023-04-01T07:27:19;7.13;;;4.60;;
8399;SDS011;4237;47.030;15.396;2023-04-01T07:29:47;7.07;;;4.00;;
8399;SDS011;4237;47.030;15.396;2023-04-01T07:32:21;6.17;;;4.37;;
8399;SDS011;4237;47.030;15.396;2023-04-01T07:37:26;7.17;;;3.90;;
8399;SDS011;4237;47.030;15.396;2023-04-01T07:42:16;10.60;;;4.07;;
8399;SDS011;4237;47.030;15.396;2023-04-01T07:47:33;5.50;;;3.77;;
8399;SDS011;4237;47.030;15.396;2023-04-01T07:50:04;5.67;;;3.40;;
8399;SDS011;4237;47.030;15.396;2023-04-01T07:57:53;8.73;;;3.13;;
8399;SDS011;4237;47.030;15.396;2023-04-01T08:00:27;3.93;;;2.70;;
8399;SDS011;4237;47.030;15.396;2023-04-01T08:05:55;4.40;;;2.70;;
8399;SDS011;4237;47.030;15.396;2023-04-01T08:13:43;3.80;;;2.53;;
8399;SDS011;4237;47.030;15.396;2023-04-01T08:16:32;2.77;;;2.30;;
8399;SDS011;4237;47.030;15.396;2023-04-01T08:21:36;3.90;;;2.63;;
8399;SDS011;4237;47.030;15.396;2023-04-01T08:24:20;3.50;;;2.70;;
8399;SDS011;4237;47.030;15.396;2023-04-01T08:26:45;4.37;;;2.33;;
8399;SDS011;4237;47.030;15.396;2023-04-01T08:29:14;3.17;;;2.30;;
8399;SDS011;4237;47.030;15.396;2023-04-01T08:31:57;2.20;;;1.97;;
8399;SDS011;4237;47.030;15.396;2023-04-01T08:34:23;2.53;;;2.20;;
8399;SDS011;4237;47.030;15.396;2023-04-01T08:36:52;2.97;;;1.87;;
8399;SDS011;4237;47.030;15.396;2023-04-01T08:39:24;3.17;;;1.80;;
8399;SDS011;4237;47.030;15.396;2023-04-01T08:50:07;5.30;;;1.73;;
8399;SDS011;4237;47.030;15.396;2023-04-01T08:52:38;2.10;;;1.53;;
8399;SDS011;4237;47.030;15.396;2023-04-01T09:00:42;2.03;;;1.20;;
8399;SDS011;4237;47.030;15.396;2023-04-01T09:05:47;2.17;;;1.73;;
8399;SDS011;4237;47.030;15.396;2023-04-01T09:11:02;3.77;;;1.80;;
8399;SDS011;4237;47.030;15.396;2023-04-01T09:29:24;2.43;;;1.77;;
8399;SDS011;4237;47.030;15.396;2023-04-01T09:31:57;2.00;;;1.70;;
8399;SDS011;4237;47.030;15.396;2023-04-01T09:37:51;2.53;;;1.40;;
8399;SDS011;4237;47.030;15.396;2023-04-01T09:39:41;1.67;;;1.30;;
8399;SDS011;4237;47.030;15.396;2023-04-01T09:45:17;1.20;;;1.10;;
8399;SDS011;4237;47.030;15.396;2023-04-01T09:47:45;5.17;;;0.80;;
8399;SDS011;4237;47.030;15.396;2023-04-01T10:03:08;0.47;;;0.47;;
8399;SDS011;4237;47.030;15.396;2023-04-01T10:11:03;0.40;;;0.20;;
8399;SDS011;4237;47.030;15.396;2023-04-01T10:27:21;0.17;;;0.17;;
8399;SDS011;4237;47.030;15.396;2023-04-01T10:47:56;0.10;;;0.10;;
8399;SDS011;4237;47.030;15.396;2023-04-01T10:50:22;0.20;;;0.20;;
8399;SDS011;4237;47.030;15.396;2023-04-01T10:55:27;0.03;;;0.03;;
8399;SDS011;4237;47.030;15.396;2023-04-01T10:57:55;0.10;;;0.10;;
8399;SDS011;4237;47.030;15.396;2023-04-01T11:13:27;0.10;;;0.10;;
8399;SDS011;4237;47.030;15.396;2023-04-01T11:16:09;0.20;;;0.20;;
8399;SDS011;4237;47.030;15.396;2023-04-01T11:26:25;0.30;;;0.30;;
8399;SDS011;4237;47.030;15.396;2023-04-01T11:37:03;1.47;;;1.33;;
8399;SDS011;4237;47.030;15.396;2023-04-01T11:42:10;0.40;;;0.10;;
8399;SDS011;4237;47.030;15.396;2023-04-01T11:44:43;0.10;;;0.10;;
8399;SDS011;4237;47.030;15.396;2023-04-01T11:49:42;0.10;;;0.10;;
8399;SDS011;4237;47.030;15.396;2023-04-01T12:10:46;0.20;;;0.10;;
8399;SDS011;4237;47.030;15.396;2023-04-01T12:13:24;1.77;;;0.10;;
8399;SDS011;4237;47.030;15.396;2023-04-01T12:15:55;0.30;;;0.30;;
8399;SDS011;4237;47.030;15.396;2023-04-01T12:21:00;0.50;;;0.50;;
8399;SDS011;4237;47.030;15.396;2023-04-01T12:44:26;0.57;;;0.10;;
8399;SDS011;4237;47.030;15.396;2023-04-01T12:52:39;0.30;;;0.10;;
8399;SDS011;4237;47.030;15.396;2023-04-01T12:57:46;0.13;;;0.00;;
8399;SDS011;4237;47.030;15.396;2023-04-01T13:07:53;0.00;;;0.00;;
8399;SDS011;4237;47.030;15.396;2023-04-01T13:10:27;0.00;;;0.00;;
8399;SDS011;4237;47.030;15.396;2023-04-01T13:18:24;1.83;;;1.60;;
8399;SDS011;4237;47.030;15.396;2023-04-01T13:23:42;0.10;;;0.10;;
8399;SDS011;4237;47.030;15.396;2023-04-01T13:28:39;1.70;;;0.10;;
8399;SDS011;4237;47.030;15.396;2023-04-01T13:31:44;0.10;;;0.10;;
8399;SDS011;4237;47.030;15.396;2023-04-01T13:33:45;0.17;;;0.10;;
8399;SDS011;4237;47.030;15.396;2023-04-01T13:47:09;2.37;;;1.77;;
8399;SDS011;4237;47.030;15.396;2023-04-01T13:52:29;0.50;;;0.37;;
8399;SDS011;4237;47.030;15.396;2023-04-01T13:57:43;0.20;;;0.20;;
8399;SDS011;4237;47.030;15.396;2023-04-01T14:05:32;0.40;;;0.40;;
8399;SDS011;4237;47.030;15.396;2023-04-01T14:10:45;0.20;;;0.20;;
8399;SDS011;4237;47.030;15.396;2023-04-01T14:13:17;1.43;;;0.10;;
8399;SDS011;4237;47.030;15.396;2023-04-01T14:16:00;0.20;;;0.10;;
8399;SDS011;4237;47.030;15.396;2023-04-01T14:18:33;0.37;;;0.20;;
8399;SDS011;4237;47.030;15.396;2023-04-01T14:23:48;0.20;;;0.10;;
8399;SDS011;4237;47.030;15.396;2023-04-01T14:34:05;0.20;;;0.17;;
8399;SDS011;4237;47.030;15.396;2023-04-01T14:36:42;0.40;;;0.30;;
8399;SDS011;4237;47.030;15.396;2023-04-01T14:41:48;1.98;;;0.30;;
8399;SDS011;4237;47.030;15.396;2023-04-01T14:44:37;0.20;;;0.20;;
8399;SDS011;4237;47.030;15.396;2023-04-01T14:49:48;1.47;;;0.33;;
8399;SDS011;4237;47.030;15.396;2023-04-01T14:54:53;0.20;;;0.13;;
8399;SDS011;4237;47.030;15.396;2023-04-01T14:57:25;0.30;;;0.30;;
8399;SDS011;4237;47.030;15.396;2023-04-01T15:13:10;0.17;;;0.17;;
8399;SDS011;4237;47.030;15.396;2023-04-01T15:18:18;3.30;;;2.80;;
8399;SDS011;4237;47.030;15.396;2023-04-01T15:23:45;0.30;;;0.20;;
8399;SDS011;4237;47.030;15.396;2023-04-01T15:26:20;1.97;;;0.40;;
8399;SDS011;4237;47.030;15.396;2023-04-01T15:28:57;0.27;;;0.27;;
8399;SDS011;4237;47.030;15.396;2023-04-01T15:31:28;0.30;;;0.30;;
8399;SDS011;4237;47.030;15.396;2023-04-01T15:34:06;0.20;;;0.20;;
8399;SDS011;4237;47.030;15.396;2023-04-01T15:39:21;0.40;;;0.30;;
8399;SDS011;4237;47.030;15.396;2023-04-01T15:41:53;0.23;;;0.20;;
8399;SDS011;4237;47.030;15.396;2023-04-01T15:44:26;0.60;;;0.30;;
8399;SDS011;4237;47.030;15.396;2023-04-01T15:46:54;0.20;;;0.20;;
8399;SDS011;4237;47.030;15.396;2023-04-01T15:49:41;0.23;;;0.23;;
8399;SDS011;4237;47.030;15.396;2023-04-01T15:54:55;0.10;;;0.10;;
8399;SDS011;4237;47.030;15.396;2023-04-01T15:57:28;0.20;;;0.20;;
8399;SDS011;4237;47.030;15.396;2023-04-01T16:00:10;0.20;;;0.20;;
8399;SDS011;4237;47.030;15.396;2023-04-01T16:05:23;1.13;;;0.60;;
8399;SDS011;4237;47.030;15.396;2023-04-01T16:07:48;0.70;;;0.43;;
8399;SDS011;4237;47.030;15.396;2023-04-01T16:10:19;2.30;;;0.50;;
8399;SDS011;4237;47.030;15.396;2023-04-01T16:12:53;0.30;;;0.30;;
8399;SDS011;4237;47.030;15.396;2023-04-01T16:20:43;4.20;;;1.70;;
8399;SDS011;4237;47.030;15.396;2023-04-01T16:25:52;1.33;;;0.60;;
8399;SDS011;4237;47.030;15.396;2023-04-01T16:28:25;0.53;;;0.50;;
8399;SDS011;4237;47.030;15.396;2023-04-01T16:31:06;1.93;;;0.90;;
8399;SDS011;4237;47.030;15.396;2023-04-01T16:36:20;3.67;;;1.50;;
8399;SDS011;4237;47.030;15.396;2023-04-01T16:39:06;1.93;;;1.10;;
8399;SDS011;4237;47.030;15.396;2023-04-01T16:41:23;2.70;;;1.80;;
8399;SDS011;4237;47.030;15.396;2023-04-01T16:43:56;2.30;;;1.87;;
8399;SDS011;4237;47.030;15.396;2023-04-01T16:46:29;1.30;;;1.20;;
8399;SDS011;4237;47.030;15.396;2023-04-01T16:51:45;1.33;;;0.80;;
8399;SDS011;4237;47.030;15.396;2023-04-01T16:59:37;1.70;;;0.60;;
8399;SDS011;4237;47.030;15.396;2023-04-01T17:04:57;4.57;;;0.83;;
8399;SDS011;4237;47.030;15.396;2023-04-01T17:07:15;5.30;;;0.90;;
8399;SDS011;4237;47.030;15.396;2023-04-01T17:10:02;1.17;;;1.07;;
8399;SDS011;4237;47.030;15.396;2023-04-01T17:15:34;0.93;;;0.83;;
8399;SDS011;4237;47.030;15.396;2023-04-01T17:18:23;2.57;;;0.90;;
8399;SDS011;4237;47.030;15.396;2023-04-01T17:20:50;1.83;;;0.90;;
8399;SDS011;4237;47.030;15.396;2023-04-01T17:39:17;2.80;;;2.40;;
8399;SDS011;4237;47.030;15.396;2023-04-01T17:41:47;4.07;;;3.10;;
8399;SDS011;4237;47.030;15.396;2023-04-01T17:44:20;3.67;;;2.40;;
8399;SDS011;4237;47.030;15.396;2023-04-01T18:03:17;2.93;;;2.37;;
8399;SDS011;4237;47.030;15.396;2023-04-01T18:13:35;2.50;;;2.10;;
8399;SDS011;4237;47.030;15.396;2023-04-01T18:16:16;2.90;;;2.20;;
8399;SDS011;4237;47.030;15.396;2023-04-01T18:18:48;2.30;;;1.80;;
8399;SDS011;4237;47.030;15.396;2023-04-01T18:23:47;1.83;;;1.40;;
8399;SDS011;4237;47.030;15.396;2023-04-01T18:26:23;1.70;;;1.20;;
8399;SDS011;4237;47.030;15.396;2023-04-01T18:28:54;1.43;;;1.20;;
8399;SDS011;4237;47.030;15.396;2023-04-01T18:31:24;2.47;;;1.50;;
8399;SDS011;4237;47.030;15.396;2023-04-01T18:41:56;1.90;;;1.20;;
8399;SDS011;4237;47.030;15.396;2023-04-01T18:49:39;1.43;;;0.53;;
8399;SDS011;4237;47.030;15.396;2023-04-01T18:52:08;1.20;;;0.47;;
8399;SDS011;4237;47.030;15.396;2023-04-01T18:54:35;0.77;;;0.50;;
8399;SDS011;4237;47.030;15.396;2023-04-01T18:57:12;1.70;;;0.80;;
8399;SDS011;4237;47.030;15.396;2023-04-01T19:03:06;1.47;;;0.70;;
8399;SDS011;4237;47.030;15.396;2023-04-01T19:05:37;1.47;;;0.43;;
8399;SDS011;4237;47.030;15.396;2023-04-01T19:08:17;0.67;;;0.23;;
8399;SDS011;4237;47.030;15.396;2023-04-01T19:13:42;0.80;;;0.40;;
8399;SDS011;4237;47.030;15.396;2023-04-01T19:21:29;1.33;;;1.23;;
8399;SDS011;4237;47.030;15.396;2023-04-01T19:24:12;3.87;;;1.20;;
8399;SDS011;4237;47.030;15.396;2023-04-01T19:27:27;4.67;;;1.80;;
8399;SDS011;4237;47.030;15.396;2023-04-01T19:32:04;2.17;;;1.43;;
8399;SDS011;4237;47.030;15.396;2023-04-01T19:37:24;0.63;;;0.60;;
8399;SDS011;4237;47.030;15.396;2023-04-01T19:42:39;0.70;;;0.60;;
8399;SDS011;4237;47.030;15.396;2023-04-01T19:56:11;2.20;;;1.53;;
8399;SDS011;4237;47.030;15.396;2023-04-01T19:58:41;2.63;;;1.87;;
8399;SDS011;4237;47.030;15.396;2023-04-01T20:01:08;1.93;;;1.20;;
8399;SDS011;4237;47.030;15.396;2023-04-01T20:03:39;2.03;;;1.40;;
8399;SDS011;4237;47.030;15.396;2023-04-01T20:06:26;2.67;;;1.90;;
8399;SDS011;4237;47.030;15.396;2023-04-01T20:11:26;3.40;;;2.30;;
8399;SDS011;4237;47.030;15.396;2023-04-01T20:13:56;3.30;;;2.00;;
8399;SDS011;4237;47.030;15.396;2023-04-01T20:16:35;2.00;;;1.80;;
8399;SDS011;4237;47.030;15.396;2023-04-01T20:19:02;4.13;;;2.03;;
8399;SDS011;4237;47.030;15.396;2023-04-01T20:24:04;2.00;;;1.00;;
8399;SDS011;4237;47.030;15.396;2023-04-01T20:26:38;2.97;;;2.00;;
8399;SDS011;4237;47.030;15.396;2023-04-01T20:31:41;4.43;;;3.17;;
8399;SDS011;4237;47.030;15.396;2023-04-01T20:34:13;3.77;;;3.10;;
8399;SDS011;4237;47.030;15.396;2023-04-01T20:52:40;0.80;;;0.40;;
8399;SDS011;4237;47.030;15.396;2023-04-01T20:57:42;0.53;;;0.30;;
8399;SDS011;4237;47.030;15.396;2023-04-01T21:00:18;0.80;;;0.60;;
8399;SDS011;4237;47.030;15.396;2023-04-01T21:02:48;0.80;;;0.80;;
8399;SDS011;4237;47.030;15.396;2023-04-01T21:05:31;1.37;;;0.90;;
8399;SDS011;4237;47.030;15.396;2023-04-01T21:08:20;1.63;;;0.73;;
8399;SDS011;4237;47.030;15.396;2023-04-01T21:13:23;1.27;;;0.63;;
8399;SDS011;4237;47.030;15.396;2023-04-01T21:16:01;0.73;;;0.70;;
8399;SDS011;4237;47.030;15.396;2023-04-01T21:21:32;0.73;;;0.70;;
8399;SDS011;4237;47.030;15.396;2023-04-01T21:29:35;1.60;;;0.50;;
8399;SDS011;4237;47.030;15.396;2023-04-01T21:45:29;0.50;;;0.37;;
8399;SDS011;4237;47.030;15.396;2023-04-01T21:58:30;0.80;;;0.67;;
8399;SDS011;4237;47.030;15.396;2023-04-01T22:06:26;1.00;;;0.77;;
8399;SDS011;4237;47.030;15.396;2023-04-01T22:09:03;0.60;;;0.50;;
8399;SDS011;4237;47.030;15.396;2023-04-01T22:11:33;0.93;;;0.60;;
8399;SDS011;4237;47.030;15.396;2023-04-01T22:17:13;0.67;;;0.60;;
8399;SDS011;4237;47.030;15.396;2023-04-01T22:21:50;2.60;;;0.80;;
8399;SDS011;4237;47.030;15.396;2023-04-01T22:24:24;0.60;;;0.60;;
8399;SDS011;4237;47.030;15.396;2023-04-01T22:26:56;0.77;;;0.60;;
8399;SDS011;4237;47.030;15.396;2023-04-01T22:29:27;3.60;;;1.10;;
8399;SDS011;4237;47.030;15.396;2023-04-01T22:31:55;2.33;;;1.50;;
8399;SDS011;4237;47.030;15.396;2023-04-01T22:34:31;2.73;;;1.03;;
8399;SDS011;4237;47.030;15.396;2023-04-01T22:36:57;1.43;;;0.73;;
8399;SDS011;4237;47.030;15.396;2023-04-01T22:42:02;2.97;;;1.87;;
8399;SDS011;4237;47.030;15.396;2023-04-01T22:44:43;2.93;;;2.13;;
8399;SDS011;4237;47.030;15.396;2023-04-01T22:49:44;5.20;;;1.90;;
8399;SDS011;4237;47.030;15.396;2023-04-01T22:52:20;2.17;;;1.67;;
8399;SDS011;4237;47.030;15.396;2023-04-01T22:54:48;4.37;;;1.77;;
8399;SDS011;4237;47.030;15.396;2023-04-01T22:59:57;2.40;;;1.73;;
8399;SDS011;4237;47.030;15.396;2023-04-01T23:02:25;1.63;;;1.47;;
8399;SDS011;4237;47.030;15.396;2023-04-01T23:04:55;2.60;;;1.60;;
8399;SDS011;4237;47.030;15.396;2023-04-01T23:07:28;2.20;;;1.53;;
8399;SDS011;4237;47.030;15.396;2023-04-01T23:09:54;2.93;;;1.30;;
8399;SDS011;4237;47.030;15.396;2023-04-01T23:12:23;2.20;;;1.50;;
8399;SDS011;4237;47.030;15.396;2023-04-01T23:14:57;2.87;;;1.50;;
8399;SDS011;4237;47.030;15.396;2023-04-01T23:17:43;4.23;;;1.93;;
8399;SDS011;4237;47.030;15.396;2023-04-01T23:20:26;2.37;;;1.60;;
8399;SDS011;4237;47.030;15.396;2023-04-01T23:30:56;3.40;;;1.80;;
8399;SDS011;4237;47.030;15.396;2023-04-01T23:33:28;3.23;;;2.00;;
8399;SDS011;4237;47.030;15.396;2023-04-01T23:35:58;6.60;;;2.07;;
8399;SDS011;4237;47.030;15.396;2023-04-01T23:38:40;4.63;;;2.20;;
8399;SDS011;4237;47.030;15.396;2023-04-01T23:41:22;2.53;;;1.87;;
8399;SDS011;4237;47.030;15.396;2023-04-01T23:43:57;2.10;;;1.77;;
8399;SDS011;4237;47.030;15.396;2023-04-01T23:46:19;2.93;;;1.70;;
8399;SDS011;4237;47.030;15.396;2023-04-01T23:48:48;2.10;;;1.43;;
8399;SDS011;4237;47.030;15.396;2023-04-01T23:51:25;2.07;;;1.50;;
8399;SDS011;4237;47.030;15.396;2023-04-01T23:53:56;2.20;;;1.57;;
8399;SDS011;4237;47.030;15.396;2023-04-01T23:56:33;2.13;;;1.47;;
8399;SDS011;4237;47.030;15.396;2023-04-01T23:58:55;2.23;;;1.40;;
